sensor_id;sensor_type;location;lat;lon;timestamp;P1;durP1;ratioP1;P2;durP2;ratioP2
10872;SDS011;34586;53.616;10.032;2023-02-05T00:00:06;4.97;;;2.87;;
10872;SDS011;34586;53.616;10.032;2023-02-05T00:02:32;3.57;;;2.40;;
10872;SDS011;34586;53.616;10.032;2023-02-05T00:04:58;3.67;;;2.67;;
10872;SDS011;34586;53.616;10.032;2023-02-05T00:07:24;3.03;;;2.40;;
10872;SDS011;34586;53.616;10.032;2023-02-05T00:09:50;2.70;;;2.50;;
10872;SDS011;34586;53.616;10.032;2023-02-05T00:12:16;3.80;;;3.10;;
10872;SDS011;34586;53.616;10.032;2023-02-05T00:14:41;3.23;;;2.83;;
10872;SDS011;34586;53.616;10.032;2023-02-05T00:17:07;3.07;;;2.30;;
10872;SDS011;34586;53.616;10.032;2023-02-05T00:19:33;4.37;;;2.97;;
10872;SDS011;34586;53.616;10.032;2023-02-05T00:21:58;6.60;;;2.10;;
10872;SDS011;34586;53.616;10.032;2023-02-05T00:24:24;3.57;;;2.73;;
10872;SDS011;34586;53.616;10.032;2023-02-05T00:26:49;3.70;;;2.23;;
10872;SDS011;34586;53.616;10.032;2023-02-05T00:29:15;3.33;;;2.43;;
10872;SDS011;34586;53.616;10.032;2023-02-05T00:31:41;4.73;;;3.03;;
10872;SDS011;34586;53.616;10.032;2023-02-05T00:34:06;4.17;;;2.30;;
10872;SDS011;34586;53.616;10.032;2023-02-05T00:36:32;3.10;;;2.50;;
10872;SDS011;34586;53.616;10.032;2023-02-05T00:38:58;2.93;;;2.20;;
10872;SDS011;34586;53.616;10.032;2023-02-05T00:41:23;2.30;;;2.10;;
10872;SDS011;34586;53.616;10.032;2023-02-05T00:43:49;2.17;;;1.97;;
10872;SDS011;34586;53.616;10.032;2023-02-05T00:46:14;3.33;;;2.30;;
10872;SDS011;34586;53.616;10.032;2023-02-05T00:48:40;3.20;;;2.17;;
10872;SDS011;34586;53.616;10.032;2023-02-05T00:51:07;4.27;;;2.33;;
10872;SDS011;34586;53.616;10.032;2023-02-05T00:53:33;4.13;;;2.50;;
10872;SDS011;34586;53.616;10.032;2023-02-05T00:55:58;4.13;;;2.63;;
10872;SDS011;34586;53.616;10.032;2023-02-05T00:58:24;3.13;;;1.93;;
10872;SDS011;34586;53.616;10.032;2023-02-05T01:00:50;4.97;;;1.90;;
10872;SDS011;34586;53.616;10.032;2023-02-05T01:03:16;3.47;;;2.27;;
10872;SDS011;34586;53.616;10.032;2023-02-05T01:05:44;1.80;;;1.70;;
10872;SDS011;34586;53.616;10.032;2023-02-05T01:08:10;2.07;;;1.80;;
10872;SDS011;34586;53.616;10.032;2023-02-05T01:10:36;3.30;;;2.13;;
10872;SDS011;34586;53.616;10.032;2023-02-05T01:13:06;2.23;;;1.90;;
10872;SDS011;34586;53.616;10.032;2023-02-05T01:15:33;6.10;;;2.00;;
10872;SDS011;34586;53.616;10.032;2023-02-05T01:17:59;2.30;;;2.10;;
10872;SDS011;34586;53.616;10.032;2023-02-05T01:20:25;3.20;;;2.10;;
10872;SDS011;34586;53.616;10.032;2023-02-05T01:22:51;2.53;;;1.90;;
10872;SDS011;34586;53.616;10.032;2023-02-05T01:25:17;2.23;;;1.83;;
10872;SDS011;34586;53.616;10.032;2023-02-05T01:27:42;2.07;;;1.80;;
10872;SDS011;34586;53.616;10.032;2023-02-05T01:30:09;2.33;;;1.50;;
10872;SDS011;34586;53.616;10.032;2023-02-05T01:32:38;2.43;;;1.83;;
10872;SDS011;34586;53.616;10.032;2023-02-05T01:35:05;2.57;;;1.60;;
10872;SDS011;34586;53.616;10.032;2023-02-05T01:37:31;2.23;;;1.83;;
10872;SDS011;34586;53.616;10.032;2023-02-05T01:39:56;2.23;;;1.90;;
10872;SDS011;34586;53.616;10.032;2023-02-05T01:42:23;4.17;;;1.73;;
10872;SDS011;34586;53.616;10.032;2023-02-05T01:47:57;2.10;;;1.80;;
10872;SDS011;34586;53.616;10.032;2023-02-05T01:53:07;2.63;;;1.67;;
10872;SDS011;34586;53.616;10.032;2023-02-05T01:55:36;2.17;;;1.60;;
10872;SDS011;34586;53.616;10.032;2023-02-05T01:58:07;1.67;;;1.40;;
10872;SDS011;34586;53.616;10.032;2023-02-05T02:00:33;1.60;;;1.50;;
10872;SDS011;34586;53.616;10.032;2023-02-05T02:02:59;2.10;;;1.90;;
10872;SDS011;34586;53.616;10.032;2023-02-05T02:05:25;4.07;;;1.70;;
10872;SDS011;34586;53.616;10.032;2023-02-05T02:07:50;1.67;;;1.57;;
10872;SDS011;34586;53.616;10.032;2023-02-05T02:10:16;2.00;;;1.13;;
10872;SDS011;34586;53.616;10.032;2023-02-05T02:12:43;2.00;;;1.50;;
10872;SDS011;34586;53.616;10.032;2023-02-05T02:15:12;2.37;;;1.60;;
10872;SDS011;34586;53.616;10.032;2023-02-05T02:17:42;1.90;;;1.63;;
10872;SDS011;34586;53.616;10.032;2023-02-05T02:20:12;2.63;;;1.40;;
10872;SDS011;34586;53.616;10.032;2023-02-05T02:28:08;1.50;;;1.37;;
10872;SDS011;34586;53.616;10.032;2023-02-05T02:30:58;2.77;;;1.40;;
10872;SDS011;34586;53.616;10.032;2023-02-05T02:38:57;1.47;;;1.37;;
10872;SDS011;34586;53.616;10.032;2023-02-05T02:41:29;2.23;;;1.23;;
10872;SDS011;34586;53.616;10.032;2023-02-05T02:44:08;2.70;;;1.33;;
10872;SDS011;34586;53.616;10.032;2023-02-05T02:46:41;1.43;;;1.20;;
10872;SDS011;34586;53.616;10.032;2023-02-05T02:49:15;2.57;;;1.40;;
10872;SDS011;34586;53.616;10.032;2023-02-05T02:51:45;1.63;;;1.50;;
10872;SDS011;34586;53.616;10.032;2023-02-05T02:54:14;1.43;;;1.33;;
10872;SDS011;34586;53.616;10.032;2023-02-05T02:56:42;1.70;;;1.60;;
10872;SDS011;34586;53.616;10.032;2023-02-05T02:59:09;3.03;;;1.50;;
10872;SDS011;34586;53.616;10.032;2023-02-05T03:01:39;1.97;;;1.70;;
10872;SDS011;34586;53.616;10.032;2023-02-05T03:04:07;1.70;;;1.50;;
10872;SDS011;34586;53.616;10.032;2023-02-05T03:06:36;2.17;;;1.70;;
10872;SDS011;34586;53.616;10.032;2023-02-05T03:09:09;2.00;;;1.40;;
10872;SDS011;34586;53.616;10.032;2023-02-05T03:11:40;1.83;;;1.60;;
10872;SDS011;34586;53.616;10.032;2023-02-05T03:14:06;1.50;;;1.40;;
10872;SDS011;34586;53.616;10.032;2023-02-05T03:16:32;1.93;;;1.40;;
10872;SDS011;34586;53.616;10.032;2023-02-05T03:18:57;3.23;;;1.47;;
10872;SDS011;34586;53.616;10.032;2023-02-05T03:21:28;1.53;;;1.43;;
10872;SDS011;34586;53.616;10.032;2023-02-05T03:23:59;2.00;;;1.43;;
10872;SDS011;34586;53.616;10.032;2023-02-05T03:26:29;1.93;;;1.60;;
10872;SDS011;34586;53.616;10.032;2023-02-05T03:28:56;2.33;;;1.30;;
10872;SDS011;34586;53.616;10.032;2023-02-05T03:31:41;1.80;;;1.57;;
10872;SDS011;34586;53.616;10.032;2023-02-05T03:34:25;2.73;;;1.40;;
10872;SDS011;34586;53.616;10.032;2023-02-05T03:42:50;5.30;;;1.73;;
10872;SDS011;34586;53.616;10.032;2023-02-05T03:53:54;1.97;;;1.60;;
10872;SDS011;34586;53.616;10.032;2023-02-05T03:56:33;1.83;;;1.40;;
10872;SDS011;34586;53.616;10.032;2023-02-05T03:59:01;1.50;;;1.40;;
10872;SDS011;34586;53.616;10.032;2023-02-05T04:01:28;4.27;;;1.80;;
10872;SDS011;34586;53.616;10.032;2023-02-05T04:03:54;5.00;;;1.80;;
10872;SDS011;34586;53.616;10.032;2023-02-05T04:06:20;2.63;;;1.60;;
10872;SDS011;34586;53.616;10.032;2023-02-05T04:08:45;1.57;;;1.43;;
10872;SDS011;34586;53.616;10.032;2023-02-05T04:11:11;2.33;;;1.80;;
10872;SDS011;34586;53.616;10.032;2023-02-05T04:13:37;1.70;;;1.60;;
10872;SDS011;34586;53.616;10.032;2023-02-05T04:16:02;1.50;;;1.40;;
10872;SDS011;34586;53.616;10.032;2023-02-05T04:18:28;2.03;;;1.70;;
10872;SDS011;34586;53.616;10.032;2023-02-05T04:20:54;2.70;;;1.60;;
10872;SDS011;34586;53.616;10.032;2023-02-05T04:23:19;4.50;;;1.70;;
10872;SDS011;34586;53.616;10.032;2023-02-05T04:25:45;2.33;;;2.00;;
10872;SDS011;34586;53.616;10.032;2023-02-05T04:28:11;2.30;;;1.50;;
10872;SDS011;34586;53.616;10.032;2023-02-05T04:30:37;1.80;;;1.70;;
10872;SDS011;34586;53.616;10.032;2023-02-05T04:33:03;3.90;;;1.40;;
10872;SDS011;34586;53.616;10.032;2023-02-05T04:35:29;1.90;;;1.70;;
10872;SDS011;34586;53.616;10.032;2023-02-05T04:37:54;2.20;;;1.77;;
10872;SDS011;34586;53.616;10.032;2023-02-05T04:40:20;3.20;;;1.70;;
10872;SDS011;34586;53.616;10.032;2023-02-05T04:42:45;3.67;;;2.00;;
10872;SDS011;34586;53.616;10.032;2023-02-05T04:45:11;2.10;;;1.53;;
10872;SDS011;34586;53.616;10.032;2023-02-05T04:47:36;3.50;;;1.90;;
10872;SDS011;34586;53.616;10.032;2023-02-05T04:50:03;3.63;;;1.70;;
10872;SDS011;34586;53.616;10.032;2023-02-05T04:52:29;2.03;;;1.50;;
10872;SDS011;34586;53.616;10.032;2023-02-05T04:54:54;1.77;;;1.60;;
10872;SDS011;34586;53.616;10.032;2023-02-05T04:57:20;2.50;;;1.43;;
10872;SDS011;34586;53.616;10.032;2023-02-05T04:59:45;1.70;;;1.60;;
10872;SDS011;34586;53.616;10.032;2023-02-05T05:02:11;1.80;;;1.70;;
10872;SDS011;34586;53.616;10.032;2023-02-05T05:04:37;2.57;;;1.70;;
10872;SDS011;34586;53.616;10.032;2023-02-05T05:07:02;2.23;;;1.73;;
10872;SDS011;34586;53.616;10.032;2023-02-05T05:09:28;2.03;;;1.73;;
10872;SDS011;34586;53.616;10.032;2023-02-05T05:11:54;4.23;;;1.97;;
10872;SDS011;34586;53.616;10.032;2023-02-05T05:14:22;1.97;;;1.77;;
10872;SDS011;34586;53.616;10.032;2023-02-05T05:16:48;3.47;;;1.80;;
10872;SDS011;34586;53.616;10.032;2023-02-05T05:19:14;3.03;;;1.60;;
10872;SDS011;34586;53.616;10.032;2023-02-05T05:21:40;2.10;;;1.80;;
10872;SDS011;34586;53.616;10.032;2023-02-05T05:24:06;1.90;;;1.60;;
10872;SDS011;34586;53.616;10.032;2023-02-05T05:26:32;1.73;;;1.63;;
10872;SDS011;34586;53.616;10.032;2023-02-05T05:28:57;1.83;;;1.60;;
10872;SDS011;34586;53.616;10.032;2023-02-05T05:31:23;2.20;;;1.60;;
10872;SDS011;34586;53.616;10.032;2023-02-05T05:33:49;2.13;;;1.60;;
10872;SDS011;34586;53.616;10.032;2023-02-05T05:36:15;1.80;;;1.67;;
10872;SDS011;34586;53.616;10.032;2023-02-05T05:38:42;2.33;;;1.80;;
10872;SDS011;34586;53.616;10.032;2023-02-05T05:41:12;1.80;;;1.70;;
10872;SDS011;34586;53.616;10.032;2023-02-05T05:44:03;2.80;;;2.10;;
10872;SDS011;34586;53.616;10.032;2023-02-05T05:46:29;2.60;;;1.90;;
10872;SDS011;34586;53.616;10.032;2023-02-05T05:48:55;3.00;;;1.80;;
10872;SDS011;34586;53.616;10.032;2023-02-05T05:51:25;2.83;;;2.00;;
10872;SDS011;34586;53.616;10.032;2023-02-05T05:53:51;2.50;;;2.03;;
10872;SDS011;34586;53.616;10.032;2023-02-05T05:56:18;2.50;;;1.83;;
10872;SDS011;34586;53.616;10.032;2023-02-05T05:58:44;1.90;;;1.67;;
10872;SDS011;34586;53.616;10.032;2023-02-05T06:01:10;3.30;;;1.80;;
10872;SDS011;34586;53.616;10.032;2023-02-05T06:03:37;3.57;;;1.70;;
10872;SDS011;34586;53.616;10.032;2023-02-05T06:06:03;3.23;;;1.87;;
10872;SDS011;34586;53.616;10.032;2023-02-05T06:08:30;4.63;;;2.20;;
10872;SDS011;34586;53.616;10.032;2023-02-05T06:10:56;2.40;;;1.77;;
10872;SDS011;34586;53.616;10.032;2023-02-05T06:13:22;2.50;;;1.80;;
10872;SDS011;34586;53.616;10.032;2023-02-05T06:15:48;2.20;;;2.00;;
10872;SDS011;34586;53.616;10.032;2023-02-05T06:18:15;2.73;;;1.93;;
10872;SDS011;34586;53.616;10.032;2023-02-05T06:20:41;3.70;;;1.97;;
10872;SDS011;34586;53.616;10.032;2023-02-05T06:23:06;3.10;;;1.90;;
10872;SDS011;34586;53.616;10.032;2023-02-05T06:25:32;2.70;;;1.73;;
10872;SDS011;34586;53.616;10.032;2023-02-05T06:27:57;2.57;;;2.37;;
10872;SDS011;34586;53.616;10.032;2023-02-05T06:30:23;2.20;;;1.87;;
10872;SDS011;34586;53.616;10.032;2023-02-05T06:32:49;4.03;;;2.10;;
10872;SDS011;34586;53.616;10.032;2023-02-05T06:35:14;3.60;;;1.70;;
10872;SDS011;34586;53.616;10.032;2023-02-05T06:37:40;1.73;;;1.63;;
10872;SDS011;34586;53.616;10.032;2023-02-05T06:40:06;3.40;;;1.90;;
10872;SDS011;34586;53.616;10.032;2023-02-05T06:42:31;2.37;;;1.90;;
10872;SDS011;34586;53.616;10.032;2023-02-05T06:44:57;2.70;;;1.83;;
10872;SDS011;34586;53.616;10.032;2023-02-05T06:47:23;2.83;;;1.93;;
10872;SDS011;34586;53.616;10.032;2023-02-05T06:49:48;3.00;;;1.80;;
10872;SDS011;34586;53.616;10.032;2023-02-05T06:52:14;3.40;;;2.03;;
10872;SDS011;34586;53.616;10.032;2023-02-05T06:54:40;2.57;;;1.90;;
10872;SDS011;34586;53.616;10.032;2023-02-05T06:57:07;2.17;;;1.80;;
10872;SDS011;34586;53.616;10.032;2023-02-05T06:59:33;2.33;;;1.73;;
10872;SDS011;34586;53.616;10.032;2023-02-05T07:01:58;2.10;;;1.77;;
10872;SDS011;34586;53.616;10.032;2023-02-05T07:04:24;2.13;;;1.93;;
10872;SDS011;34586;53.616;10.032;2023-02-05T07:06:52;2.80;;;1.80;;
10872;SDS011;34586;53.616;10.032;2023-02-05T07:09:19;3.87;;;2.07;;
10872;SDS011;34586;53.616;10.032;2023-02-05T07:11:45;1.83;;;1.73;;
10872;SDS011;34586;53.616;10.032;2023-02-05T07:14:10;2.00;;;1.90;;
10872;SDS011;34586;53.616;10.032;2023-02-05T07:16:36;4.43;;;2.10;;
10872;SDS011;34586;53.616;10.032;2023-02-05T07:19:01;2.63;;;2.00;;
10872;SDS011;34586;53.616;10.032;2023-02-05T07:21:27;2.40;;;2.10;;
10872;SDS011;34586;53.616;10.032;2023-02-05T07:23:53;3.40;;;2.40;;
10872;SDS011;34586;53.616;10.032;2023-02-05T07:26:19;2.93;;;2.23;;
10872;SDS011;34586;53.616;10.032;2023-02-05T07:28:45;2.40;;;2.20;;
10872;SDS011;34586;53.616;10.032;2023-02-05T07:31:12;3.87;;;2.20;;
10872;SDS011;34586;53.616;10.032;2023-02-05T07:33:40;2.67;;;1.90;;
10872;SDS011;34586;53.616;10.032;2023-02-05T07:36:10;3.67;;;2.20;;
10872;SDS011;34586;53.616;10.032;2023-02-05T07:38:40;1.90;;;1.80;;
10872;SDS011;34586;53.616;10.032;2023-02-05T07:41:06;2.37;;;2.17;;
10872;SDS011;34586;53.616;10.032;2023-02-05T07:43:34;3.47;;;1.87;;
10872;SDS011;34586;53.616;10.032;2023-02-05T07:46:01;2.97;;;2.53;;
10872;SDS011;34586;53.616;10.032;2023-02-05T07:48:28;4.00;;;2.13;;
10872;SDS011;34586;53.616;10.032;2023-02-05T07:50:54;2.40;;;2.10;;
10872;SDS011;34586;53.616;10.032;2023-02-05T07:53:20;4.03;;;2.50;;
10872;SDS011;34586;53.616;10.032;2023-02-05T07:55:45;2.70;;;2.33;;
10872;SDS011;34586;53.616;10.032;2023-02-05T07:58:11;2.73;;;2.53;;
10872;SDS011;34586;53.616;10.032;2023-02-05T08:00:37;2.00;;;1.90;;
10872;SDS011;34586;53.616;10.032;2023-02-05T08:03:03;3.30;;;2.57;;
10872;SDS011;34586;53.616;10.032;2023-02-05T08:05:28;4.27;;;2.40;;
10872;SDS011;34586;53.616;10.032;2023-02-05T08:07:54;3.83;;;2.20;;
10872;SDS011;34586;53.616;10.032;2023-02-05T08:10:19;3.50;;;2.30;;
10872;SDS011;34586;53.616;10.032;2023-02-05T08:12:45;3.37;;;2.23;;
10872;SDS011;34586;53.616;10.032;2023-02-05T08:15:11;2.93;;;2.63;;
10872;SDS011;34586;53.616;10.032;2023-02-05T08:17:36;4.97;;;2.50;;
10872;SDS011;34586;53.616;10.032;2023-02-05T08:20:03;3.57;;;2.67;;
10872;SDS011;34586;53.616;10.032;2023-02-05T08:22:32;3.00;;;2.60;;
10872;SDS011;34586;53.616;10.032;2023-02-05T08:25:00;3.00;;;2.53;;
10872;SDS011;34586;53.616;10.032;2023-02-05T08:27:26;2.50;;;2.30;;
10872;SDS011;34586;53.616;10.032;2023-02-05T08:29:51;2.73;;;2.50;;
10872;SDS011;34586;53.616;10.032;2023-02-05T08:32:17;3.20;;;2.73;;
10872;SDS011;34586;53.616;10.032;2023-02-05T08:34:43;9.23;;;2.43;;
10872;SDS011;34586;53.616;10.032;2023-02-05T08:37:08;2.50;;;2.30;;
10872;SDS011;34586;53.616;10.032;2023-02-05T08:39:34;3.10;;;2.30;;
10872;SDS011;34586;53.616;10.032;2023-02-05T08:42:01;3.60;;;2.63;;
10872;SDS011;34586;53.616;10.032;2023-02-05T08:44:27;2.97;;;2.60;;
10872;SDS011;34586;53.616;10.032;2023-02-05T08:46:53;5.07;;;2.33;;
10872;SDS011;34586;53.616;10.032;2023-02-05T08:49:18;4.47;;;2.73;;
10872;SDS011;34586;53.616;10.032;2023-02-05T08:51:44;4.83;;;2.40;;
10872;SDS011;34586;53.616;10.032;2023-02-05T08:54:10;8.17;;;2.70;;
10872;SDS011;34586;53.616;10.032;2023-02-05T08:56:37;4.33;;;2.63;;
10872;SDS011;34586;53.616;10.032;2023-02-05T08:59:04;4.37;;;2.20;;
10872;SDS011;34586;53.616;10.032;2023-02-05T09:01:30;2.47;;;2.27;;
10872;SDS011;34586;53.616;10.032;2023-02-05T09:03:55;6.30;;;2.93;;
10872;SDS011;34586;53.616;10.032;2023-02-05T09:06:21;4.03;;;2.47;;
10872;SDS011;34586;53.616;10.032;2023-02-05T09:08:47;4.63;;;2.43;;
10872;SDS011;34586;53.616;10.032;2023-02-05T09:11:13;4.17;;;2.30;;
10872;SDS011;34586;53.616;10.032;2023-02-05T09:13:43;3.37;;;2.37;;
10872;SDS011;34586;53.616;10.032;2023-02-05T09:16:09;4.23;;;2.57;;
10872;SDS011;34586;53.616;10.032;2023-02-05T09:18:35;4.13;;;2.47;;
10872;SDS011;34586;53.616;10.032;2023-02-05T09:21:01;2.93;;;2.20;;
10872;SDS011;34586;53.616;10.032;2023-02-05T09:23:31;3.43;;;2.60;;
10872;SDS011;34586;53.616;10.032;2023-02-05T09:25:57;4.37;;;2.33;;
10872;SDS011;34586;53.616;10.032;2023-02-05T09:28:24;6.00;;;2.87;;
10872;SDS011;34586;53.616;10.032;2023-02-05T09:30:50;2.40;;;2.20;;
10872;SDS011;34586;53.616;10.032;2023-02-05T09:33:16;3.73;;;2.63;;
10872;SDS011;34586;53.616;10.032;2023-02-05T09:35:42;3.80;;;2.53;;
10872;SDS011;34586;53.616;10.032;2023-02-05T09:38:08;2.87;;;2.50;;
10872;SDS011;34586;53.616;10.032;2023-02-05T09:51:49;2.80;;;2.50;;
10872;SDS011;34586;53.616;10.032;2023-02-05T09:54:25;3.77;;;2.73;;
10872;SDS011;34586;53.616;10.032;2023-02-05T09:57:10;4.20;;;2.60;;
10872;SDS011;34586;53.616;10.032;2023-02-05T09:59:41;4.73;;;2.77;;
10872;SDS011;34586;53.616;10.032;2023-02-05T10:02:25;8.50;;;2.67;;
10872;SDS011;34586;53.616;10.032;2023-02-05T10:04:52;5.03;;;2.57;;
10872;SDS011;34586;53.616;10.032;2023-02-05T10:16:00;3.33;;;2.80;;
10872;SDS011;34586;53.616;10.032;2023-02-05T10:21:53;3.47;;;2.67;;
10872;SDS011;34586;53.616;10.032;2023-02-05T10:27:19;7.37;;;2.60;;
10872;SDS011;34586;53.616;10.032;2023-02-05T10:35:00;2.60;;;2.40;;
10872;SDS011;34586;53.616;10.032;2023-02-05T10:37:52;3.43;;;2.53;;
10872;SDS011;34586;53.616;10.032;2023-02-05T10:40:38;5.33;;;2.73;;
10872;SDS011;34586;53.616;10.032;2023-02-05T10:45:58;7.83;;;2.80;;
10872;SDS011;34586;53.616;10.032;2023-02-05T10:51:16;4.63;;;2.93;;
10872;SDS011;34586;53.616;10.032;2023-02-05T10:53:46;3.23;;;2.57;;
10872;SDS011;34586;53.616;10.032;2023-02-05T10:56:14;2.67;;;2.47;;
10872;SDS011;34586;53.616;10.032;2023-02-05T11:01:19;4.10;;;2.83;;
10872;SDS011;34586;53.616;10.032;2023-02-05T11:04:00;4.20;;;2.60;;
10872;SDS011;34586;53.616;10.032;2023-02-05T11:06:37;2.57;;;2.30;;
10872;SDS011;34586;53.616;10.032;2023-02-05T11:09:33;6.00;;;2.90;;
10872;SDS011;34586;53.616;10.032;2023-02-05T11:12:00;3.73;;;2.80;;
10872;SDS011;34586;53.616;10.032;2023-02-05T11:14:36;3.30;;;2.60;;
10872;SDS011;34586;53.616;10.032;2023-02-05T11:19:39;5.67;;;2.60;;
10872;SDS011;34586;53.616;10.032;2023-02-05T11:22:05;4.27;;;2.80;;
10872;SDS011;34586;53.616;10.032;2023-02-05T11:30:01;4.10;;;3.07;;
10872;SDS011;34586;53.616;10.032;2023-02-05T11:32:43;4.33;;;2.53;;
10872;SDS011;34586;53.616;10.032;2023-02-05T11:35:15;2.47;;;2.27;;
10872;SDS011;34586;53.616;10.032;2023-02-05T11:37:43;3.47;;;3.03;;
10872;SDS011;34586;53.616;10.032;2023-02-05T11:40:20;3.50;;;2.60;;
10872;SDS011;34586;53.616;10.032;2023-02-05T11:43:14;5.77;;;2.67;;
10872;SDS011;34586;53.616;10.032;2023-02-05T11:45:46;9.17;;;2.60;;
10872;SDS011;34586;53.616;10.032;2023-02-05T11:51:08;4.17;;;3.03;;
10872;SDS011;34586;53.616;10.032;2023-02-05T11:53:48;4.07;;;2.60;;
10872;SDS011;34586;53.616;10.032;2023-02-05T11:56:19;3.00;;;2.60;;
10872;SDS011;34586;53.616;10.032;2023-02-05T11:58:57;3.87;;;2.60;;
10872;SDS011;34586;53.616;10.032;2023-02-05T12:01:27;4.77;;;2.70;;
10872;SDS011;34586;53.616;10.032;2023-02-05T12:04:16;3.30;;;2.60;;
10872;SDS011;34586;53.616;10.032;2023-02-05T12:09:21;3.83;;;2.67;;
10872;SDS011;34586;53.616;10.032;2023-02-05T12:17:33;5.00;;;2.43;;
10872;SDS011;34586;53.616;10.032;2023-02-05T12:25:26;3.17;;;2.40;;
10872;SDS011;34586;53.616;10.032;2023-02-05T12:30:50;5.20;;;2.70;;
10872;SDS011;34586;53.616;10.032;2023-02-05T12:47:35;5.00;;;3.30;;
10872;SDS011;34586;53.616;10.032;2023-02-05T12:58:20;4.00;;;3.03;;
10872;SDS011;34586;53.616;10.032;2023-02-05T13:00:52;4.27;;;2.83;;
10872;SDS011;34586;53.616;10.032;2023-02-05T13:03:26;7.97;;;4.30;;
10872;SDS011;34586;53.616;10.032;2023-02-05T13:08:50;6.37;;;2.80;;
10872;SDS011;34586;53.616;10.032;2023-02-05T13:14:24;4.40;;;2.97;;
10872;SDS011;34586;53.616;10.032;2023-02-05T13:16:45;5.67;;;3.30;;
10872;SDS011;34586;53.616;10.032;2023-02-05T13:19:29;4.20;;;3.00;;
10872;SDS011;34586;53.616;10.032;2023-02-05T13:21:58;3.50;;;2.90;;
10872;SDS011;34586;53.616;10.032;2023-02-05T13:24:50;5.50;;;3.00;;
10872;SDS011;34586;53.616;10.032;2023-02-05T13:27:47;3.93;;;2.97;;
10872;SDS011;34586;53.616;10.032;2023-02-05T13:30:37;3.73;;;2.83;;
10872;SDS011;34586;53.616;10.032;2023-02-05T13:33:07;4.20;;;2.80;;
10872;SDS011;34586;53.616;10.032;2023-02-05T13:35:34;3.83;;;3.07;;
10872;SDS011;34586;53.616;10.032;2023-02-05T13:59:40;3.87;;;3.20;;
10872;SDS011;34586;53.616;10.032;2023-02-05T14:02:31;4.40;;;3.00;;
10872;SDS011;34586;53.616;10.032;2023-02-05T14:05:00;4.23;;;3.20;;
10872;SDS011;34586;53.616;10.032;2023-02-05T14:07:31;3.70;;;2.93;;
10872;SDS011;34586;53.616;10.032;2023-02-05T14:10:22;5.30;;;3.30;;
10872;SDS011;34586;53.616;10.032;2023-02-05T14:12:53;4.43;;;3.03;;
10872;SDS011;34586;53.616;10.032;2023-02-05T14:15:39;5.07;;;3.30;;
10872;SDS011;34586;53.616;10.032;2023-02-05T14:18:06;5.43;;;3.17;;
10872;SDS011;34586;53.616;10.032;2023-02-05T14:20:39;4.37;;;3.10;;
10872;SDS011;34586;53.616;10.032;2023-02-05T14:23:53;5.13;;;2.90;;
10872;SDS011;34586;53.616;10.032;2023-02-05T14:26:09;3.40;;;3.03;;
10872;SDS011;34586;53.616;10.032;2023-02-05T14:28:35;7.27;;;3.50;;
10872;SDS011;34586;53.616;10.032;2023-02-05T14:31:08;6.17;;;3.20;;
10872;SDS011;34586;53.616;10.032;2023-02-05T14:34:26;5.77;;;3.13;;
10872;SDS011;34586;53.616;10.032;2023-02-05T14:36:52;5.03;;;3.23;;
10872;SDS011;34586;53.616;10.032;2023-02-05T14:39:20;6.00;;;3.23;;
10872;SDS011;34586;53.616;10.032;2023-02-05T14:41:52;3.37;;;3.07;;
10872;SDS011;34586;53.616;10.032;2023-02-05T14:44:24;6.80;;;3.33;;
10872;SDS011;34586;53.616;10.032;2023-02-05T14:47:08;4.93;;;3.10;;
10872;SDS011;34586;53.616;10.032;2023-02-05T14:49:45;6.83;;;3.53;;
10872;SDS011;34586;53.616;10.032;2023-02-05T14:54:54;5.90;;;3.47;;
10872;SDS011;34586;53.616;10.032;2023-02-05T15:00:48;3.67;;;2.97;;
10872;SDS011;34586;53.616;10.032;2023-02-05T15:05:39;4.57;;;3.33;;
10872;SDS011;34586;53.616;10.032;2023-02-05T15:11:06;4.07;;;3.60;;
10872;SDS011;34586;53.616;10.032;2023-02-05T15:16:46;5.77;;;3.73;;
10872;SDS011;34586;53.616;10.032;2023-02-05T15:19:39;6.00;;;3.80;;
10872;SDS011;34586;53.616;10.032;2023-02-05T15:24:51;5.27;;;3.87;;
10872;SDS011;34586;53.616;10.032;2023-02-05T15:27:22;5.17;;;3.70;;
10872;SDS011;34586;53.616;10.032;2023-02-05T15:29:53;6.27;;;3.60;;
10872;SDS011;34586;53.616;10.032;2023-02-05T15:32:31;9.67;;;3.73;;
10872;SDS011;34586;53.616;10.032;2023-02-05T15:35:01;5.00;;;3.87;;
10872;SDS011;34586;53.616;10.032;2023-02-05T15:37:39;6.10;;;4.20;;
10872;SDS011;34586;53.616;10.032;2023-02-05T15:42:44;10.93;;;4.53;;
10872;SDS011;34586;53.616;10.032;2023-02-05T15:45:23;6.23;;;3.63;;
10872;SDS011;34586;53.616;10.032;2023-02-05T15:48:01;3.90;;;3.50;;
10872;SDS011;34586;53.616;10.032;2023-02-05T15:50:30;5.93;;;4.30;;
10872;SDS011;34586;53.616;10.032;2023-02-05T15:52:58;5.30;;;4.27;;
10872;SDS011;34586;53.616;10.032;2023-02-05T15:55:24;7.67;;;4.80;;
10872;SDS011;34586;53.616;10.032;2023-02-05T15:57:54;9.03;;;5.70;;
10872;SDS011;34586;53.616;10.032;2023-02-05T16:00:26;8.13;;;4.70;;
10872;SDS011;34586;53.616;10.032;2023-02-05T16:02:54;5.97;;;4.53;;
10872;SDS011;34586;53.616;10.032;2023-02-05T16:05:21;9.40;;;4.87;;
10872;SDS011;34586;53.616;10.032;2023-02-05T16:07:48;6.73;;;4.87;;
10872;SDS011;34586;53.616;10.032;2023-02-05T16:10:29;7.97;;;5.20;;
10872;SDS011;34586;53.616;10.032;2023-02-05T16:13:05;7.20;;;5.23;;
10872;SDS011;34586;53.616;10.032;2023-02-05T16:18:43;8.60;;;5.27;;
10872;SDS011;34586;53.616;10.032;2023-02-05T16:22:03;11.20;;;5.20;;
10872;SDS011;34586;53.616;10.032;2023-02-05T16:24:11;11.57;;;7.10;;
10872;SDS011;34586;53.616;10.032;2023-02-05T16:26:58;7.03;;;5.63;;
10872;SDS011;34586;53.616;10.032;2023-02-05T16:29:27;8.40;;;4.80;;
10872;SDS011;34586;53.616;10.032;2023-02-05T16:32:03;6.70;;;5.37;;
10872;SDS011;34586;53.616;10.032;2023-02-05T16:34:33;5.30;;;4.47;;
10872;SDS011;34586;53.616;10.032;2023-02-05T16:37:04;6.67;;;4.73;;
10872;SDS011;34586;53.616;10.032;2023-02-05T16:39:42;7.57;;;5.87;;
10872;SDS011;34586;53.616;10.032;2023-02-05T16:50:42;8.10;;;5.60;;
10872;SDS011;34586;53.616;10.032;2023-02-05T16:53:41;11.43;;;5.57;;
10872;SDS011;34586;53.616;10.032;2023-02-05T16:56:15;8.60;;;5.77;;
10872;SDS011;34586;53.616;10.032;2023-02-05T16:58:47;9.93;;;5.83;;
10872;SDS011;34586;53.616;10.032;2023-02-05T17:01:23;13.00;;;7.53;;
10872;SDS011;34586;53.616;10.032;2023-02-05T17:04:23;10.67;;;7.87;;
10872;SDS011;34586;53.616;10.032;2023-02-05T17:07:01;10.67;;;7.33;;
10872;SDS011;34586;53.616;10.032;2023-02-05T17:09:35;13.43;;;9.13;;
10872;SDS011;34586;53.616;10.032;2023-02-05T17:14:59;18.87;;;10.53;;
10872;SDS011;34586;53.616;10.032;2023-02-05T17:17:44;18.70;;;11.87;;
10872;SDS011;34586;53.616;10.032;2023-02-05T17:25:35;23.10;;;13.20;;
10872;SDS011;34586;53.616;10.032;2023-02-05T17:28:06;22.87;;;13.07;;
10872;SDS011;34586;53.616;10.032;2023-02-05T17:30:39;23.70;;;12.63;;
10872;SDS011;34586;53.616;10.032;2023-02-05T17:33:07;20.67;;;13.07;;
10872;SDS011;34586;53.616;10.032;2023-02-05T17:35:33;23.20;;;12.07;;
10872;SDS011;34586;53.616;10.032;2023-02-05T17:37:58;19.87;;;12.37;;
10872;SDS011;34586;53.616;10.032;2023-02-05T17:40:24;18.40;;;12.37;;
10872;SDS011;34586;53.616;10.032;2023-02-05T17:42:50;19.83;;;12.63;;
10872;SDS011;34586;53.616;10.032;2023-02-05T17:45:20;20.97;;;13.00;;
10872;SDS011;34586;53.616;10.032;2023-02-05T17:47:48;20.10;;;12.10;;
10872;SDS011;34586;53.616;10.032;2023-02-05T17:50:14;21.23;;;12.80;;
10872;SDS011;34586;53.616;10.032;2023-02-05T17:52:40;22.07;;;13.13;;
10872;SDS011;34586;53.616;10.032;2023-02-05T17:55:09;17.87;;;12.93;;